sensor_id;sensor_type;location;lat;lon;timestamp;P1;durP1;ratioP1;P2;durP2;ratioP2
58770;SDS011;44539;42.962;1.596;2023-02-28T07:12:16;9.60;;;5.03;;
58770;SDS011;44539;42.962;1.596;2023-02-28T07:14:42;9.10;;;4.90;;
58770;SDS011;44539;42.962;1.596;2023-02-28T07:17:08;7.55;;;4.32;;
58770;SDS011;44539;42.962;1.596;2023-02-28T07:19:35;9.63;;;4.45;;
58770;SDS011;44539;42.962;1.596;2023-02-28T07:22:01;7.20;;;4.07;;
58770;SDS011;44539;42.962;1.596;2023-02-28T07:24:27;7.35;;;3.88;;
58770;SDS011;44539;42.962;1.596;2023-02-28T07:26:54;6.78;;;3.97;;
58770;SDS011;44539;42.962;1.596;2023-02-28T07:29:20;7.97;;;4.20;;
58770;SDS011;44539;42.962;1.596;2023-02-28T07:31:45;7.93;;;3.95;;
58770;SDS011;44539;42.962;1.596;2023-02-28T07:34:11;8.35;;;4.50;;
58770;SDS011;44539;42.962;1.596;2023-02-28T07:36:37;7.20;;;4.00;;
58770;SDS011;44539;42.962;1.596;2023-02-28T07:39:03;8.07;;;3.88;;
58770;SDS011;44539;42.962;1.596;2023-02-28T07:41:29;7.30;;;3.80;;
58770;SDS011;44539;42.962;1.596;2023-02-28T07:43:58;8.48;;;3.85;;
58770;SDS011;44539;42.962;1.596;2023-02-28T07:46:24;7.18;;;3.90;;
58770;SDS011;44539;42.962;1.596;2023-02-28T07:48:50;8.60;;;4.07;;
58770;SDS011;44539;42.962;1.596;2023-02-28T07:51:17;6.93;;;3.92;;
58770;SDS011;44539;42.962;1.596;2023-02-28T07:53:43;8.02;;;4.07;;
58770;SDS011;44539;42.962;1.596;2023-02-28T07:56:09;7.18;;;4.18;;
58770;SDS011;44539;42.962;1.596;2023-02-28T07:58:35;9.00;;;4.25;;
58770;SDS011;44539;42.962;1.596;2023-02-28T08:01:05;6.18;;;3.80;;
58770;SDS011;44539;42.962;1.596;2023-02-28T08:03:34;7.78;;;3.60;;
58770;SDS011;44539;42.962;1.596;2023-02-28T08:06:00;7.40;;;3.72;;
58770;SDS011;44539;42.962;1.596;2023-02-28T08:08:27;7.00;;;4.07;;
58770;SDS011;44539;42.962;1.596;2023-02-28T08:10:57;6.32;;;2.95;;
58770;SDS011;44539;42.962;1.596;2023-02-28T08:13:25;8.05;;;4.30;;
58770;SDS011;44539;42.962;1.596;2023-02-28T08:15:52;7.80;;;3.65;;
58770;SDS011;44539;42.962;1.596;2023-02-28T08:18:17;6.80;;;3.47;;
58770;SDS011;44539;42.962;1.596;2023-02-28T08:20:42;7.18;;;3.40;;
58770;SDS011;44539;42.962;1.596;2023-02-28T08:23:08;6.82;;;3.60;;
58770;SDS011;44539;42.962;1.596;2023-02-28T08:25:33;8.50;;;4.05;;
58770;SDS011;44539;42.962;1.596;2023-02-28T08:27:59;6.78;;;3.67;;
58770;SDS011;44539;42.962;1.596;2023-02-28T08:30:24;7.32;;;3.60;;
58770;SDS011;44539;42.962;1.596;2023-02-28T08:32:49;8.02;;;3.70;;
58770;SDS011;44539;42.962;1.596;2023-02-28T08:35:15;7.38;;;3.70;;
58770;SDS011;44539;42.962;1.596;2023-02-28T08:37:40;7.72;;;3.58;;
58770;SDS011;44539;42.962;1.596;2023-02-28T08:40:06;7.07;;;3.88;;
58770;SDS011;44539;42.962;1.596;2023-02-28T08:42:32;6.93;;;3.72;;
58770;SDS011;44539;42.962;1.596;2023-02-28T08:44:58;5.82;;;3.45;;
58770;SDS011;44539;42.962;1.596;2023-02-28T08:47:23;5.80;;;3.33;;
58770;SDS011;44539;42.962;1.596;2023-02-28T08:49:48;5.72;;;3.38;;
58770;SDS011;44539;42.962;1.596;2023-02-28T08:52:14;8.23;;;3.75;;
58770;SDS011;44539;42.962;1.596;2023-02-28T08:54:39;8.35;;;3.40;;
58770;SDS011;44539;42.962;1.596;2023-02-28T08:57:05;5.82;;;3.47;;
58770;SDS011;44539;42.962;1.596;2023-02-28T08:59:30;7.93;;;3.65;;
58770;SDS011;44539;42.962;1.596;2023-02-28T09:01:56;6.47;;;3.47;;
58770;SDS011;44539;42.962;1.596;2023-02-28T09:04:21;7.50;;;3.38;;
58770;SDS011;44539;42.962;1.596;2023-02-28T09:06:47;5.90;;;3.20;;
58770;SDS011;44539;42.962;1.596;2023-02-28T09:09:13;7.22;;;3.40;;
58770;SDS011;44539;42.962;1.596;2023-02-28T09:11:39;11.95;;;3.10;;
58770;SDS011;44539;42.962;1.596;2023-02-28T09:14:05;6.47;;;2.90;;
58770;SDS011;44539;42.962;1.596;2023-02-28T09:16:33;5.43;;;3.15;;
58770;SDS011;44539;42.962;1.596;2023-02-28T09:18:59;6.78;;;3.28;;
58770;SDS011;44539;42.962;1.596;2023-02-28T09:21:25;5.50;;;2.70;;
58770;SDS011;44539;42.962;1.596;2023-02-28T09:23:50;5.57;;;3.22;;
58770;SDS011;44539;42.962;1.596;2023-02-28T09:26:17;5.53;;;3.10;;
58770;SDS011;44539;42.962;1.596;2023-02-28T09:28:48;5.82;;;3.17;;
58770;SDS011;44539;42.962;1.596;2023-02-28T09:31:21;6.43;;;3.30;;
58770;SDS011;44539;42.962;1.596;2023-02-28T09:36:15;8.98;;;4.03;;
58770;SDS011;44539;42.962;1.596;2023-02-28T09:38:41;8.60;;;3.83;;
58770;SDS011;44539;42.962;1.596;2023-02-28T09:41:18;5.47;;;2.75;;
58770;SDS011;44539;42.962;1.596;2023-02-28T09:44:06;4.97;;;2.90;;
58770;SDS011;44539;42.962;1.596;2023-02-28T09:49:07;6.55;;;3.05;;
58770;SDS011;44539;42.962;1.596;2023-02-28T09:54:34;6.82;;;2.92;;
58770;SDS011;44539;42.962;1.596;2023-02-28T10:05:27;5.00;;;2.50;;
58770;SDS011;44539;42.962;1.596;2023-02-28T10:08:00;5.45;;;2.72;;
58770;SDS011;44539;42.962;1.596;2023-02-28T10:10:39;5.40;;;2.90;;
58770;SDS011;44539;42.962;1.596;2023-02-28T10:16:01;4.22;;;2.67;;
58770;SDS011;44539;42.962;1.596;2023-02-28T10:18:35;6.13;;;3.00;;
58770;SDS011;44539;42.962;1.596;2023-02-28T10:21:25;4.65;;;2.55;;
58770;SDS011;44539;42.962;1.596;2023-02-28T10:23:52;4.55;;;2.70;;
58770;SDS011;44539;42.962;1.596;2023-02-28T10:26:29;5.47;;;2.53;;
58770;SDS011;44539;42.962;1.596;2023-02-28T10:28:56;5.05;;;2.53;;
58770;SDS011;44539;42.962;1.596;2023-02-28T10:31:22;4.40;;;2.45;;
58770;SDS011;44539;42.962;1.596;2023-02-28T10:33:47;5.10;;;2.45;;
58770;SDS011;44539;42.962;1.596;2023-02-28T10:36:17;5.28;;;2.97;;
58770;SDS011;44539;42.962;1.596;2023-02-28T10:38:45;5.10;;;2.80;;
58770;SDS011;44539;42.962;1.596;2023-02-28T10:41:12;6.20;;;2.97;;
58770;SDS011;44539;42.962;1.596;2023-02-28T10:43:41;7.82;;;3.08;;
58770;SDS011;44539;42.962;1.596;2023-02-28T10:48:34;5.35;;;2.80;;
58770;SDS011;44539;42.962;1.596;2023-02-28T10:51:03;6.18;;;2.80;;
58770;SDS011;44539;42.962;1.596;2023-02-28T11:01:24;5.68;;;2.90;;
58770;SDS011;44539;42.962;1.596;2023-02-28T11:06:46;7.45;;;3.35;;
58770;SDS011;44539;42.962;1.596;2023-02-28T11:11:50;5.35;;;3.05;;
58770;SDS011;44539;42.962;1.596;2023-02-28T11:14:22;5.53;;;3.50;;
58770;SDS011;44539;42.962;1.596;2023-02-28T11:16:51;5.53;;;2.95;;
58770;SDS011;44539;42.962;1.596;2023-02-28T11:19:22;7.85;;;3.40;;
58770;SDS011;44539;42.962;1.596;2023-02-28T11:26:48;5.75;;;3.08;;
58770;SDS011;44539;42.962;1.596;2023-02-28T11:29:21;6.68;;;3.00;;
58770;SDS011;44539;42.962;1.596;2023-02-28T11:34:33;6.68;;;3.30;;
58770;SDS011;44539;42.962;1.596;2023-02-28T11:37:00;6.78;;;3.13;;
58770;SDS011;44539;42.962;1.596;2023-02-28T11:39:30;5.22;;;3.10;;
58770;SDS011;44539;42.962;1.596;2023-02-28T11:55:32;6.70;;;3.55;;
58770;SDS011;44539;42.962;1.596;2023-02-28T11:58:17;5.57;;;3.28;;
58770;SDS011;44539;42.962;1.596;2023-02-28T12:05:50;6.70;;;3.17;;
58770;SDS011;44539;42.962;1.596;2023-02-28T12:08:47;5.63;;;2.92;;
58770;SDS011;44539;42.962;1.596;2023-02-28T12:14:06;6.00;;;3.03;;
58770;SDS011;44539;42.962;1.596;2023-02-28T12:16:44;6.88;;;3.70;;
58770;SDS011;44539;42.962;1.596;2023-02-28T12:22:30;8.80;;;3.58;;
58770;SDS011;44539;42.962;1.596;2023-02-28T12:27:53;5.72;;;3.33;;
58770;SDS011;44539;42.962;1.596;2023-02-28T12:30:21;6.28;;;3.05;;
58770;SDS011;44539;42.962;1.596;2023-02-28T12:33:04;7.53;;;3.35;;
58770;SDS011;44539;42.962;1.596;2023-02-28T12:35:54;7.28;;;3.55;;
58770;SDS011;44539;42.962;1.596;2023-02-28T12:38:23;7.18;;;3.30;;
58770;SDS011;44539;42.962;1.596;2023-02-28T12:40:55;7.07;;;3.72;;
58770;SDS011;44539;42.962;1.596;2023-02-28T12:43:27;5.30;;;3.05;;
58770;SDS011;44539;42.962;1.596;2023-02-28T12:46:15;9.30;;;3.33;;
58770;SDS011;44539;42.962;1.596;2023-02-28T12:48:50;5.82;;;3.65;;
58770;SDS011;44539;42.962;1.596;2023-02-28T12:51:20;6.20;;;3.35;;
58770;SDS011;44539;42.962;1.596;2023-02-28T12:59:10;8.43;;;4.00;;
58770;SDS011;44539;42.962;1.596;2023-02-28T13:09:40;9.23;;;3.50;;
58770;SDS011;44539;42.962;1.596;2023-02-28T13:12:14;5.40;;;2.92;;
58770;SDS011;44539;42.962;1.596;2023-02-28T13:14:41;6.53;;;3.28;;
58770;SDS011;44539;42.962;1.596;2023-02-28T13:22:15;5.78;;;3.53;;
58770;SDS011;44539;42.962;1.596;2023-02-28T13:25:50;5.85;;;3.38;;
58770;SDS011;44539;42.962;1.596;2023-02-28T13:27:50;6.28;;;3.65;;
58770;SDS011;44539;42.962;1.596;2023-02-28T13:33:22;6.78;;;3.45;;
58770;SDS011;44539;42.962;1.596;2023-02-28T13:35:50;6.53;;;3.05;;
58770;SDS011;44539;42.962;1.596;2023-02-28T13:38:33;6.22;;;3.88;;
58770;SDS011;44539;42.962;1.596;2023-02-28T13:51:46;9.93;;;4.10;;
58770;SDS011;44539;42.962;1.596;2023-02-28T13:54:38;8.38;;;3.53;;
58770;SDS011;44539;42.962;1.596;2023-02-28T13:57:28;8.40;;;3.53;;
58770;SDS011;44539;42.962;1.596;2023-02-28T14:05:37;7.90;;;3.67;;
58770;SDS011;44539;42.962;1.596;2023-02-28T14:08:25;7.82;;;3.67;;
58770;SDS011;44539;42.962;1.596;2023-02-28T14:10:50;7.43;;;3.90;;
58770;SDS011;44539;42.962;1.596;2023-02-28T14:13:39;5.82;;;3.70;;
58770;SDS011;44539;42.962;1.596;2023-02-28T14:16:13;7.20;;;4.07;;
58770;SDS011;44539;42.962;1.596;2023-02-28T14:32:11;7.63;;;4.20;;
58770;SDS011;44539;42.962;1.596;2023-02-28T14:34:53;7.13;;;3.70;;
58770;SDS011;44539;42.962;1.596;2023-02-28T14:37:33;7.40;;;3.83;;
58770;SDS011;44539;42.962;1.596;2023-02-28T14:40:02;7.53;;;4.05;;
58770;SDS011;44539;42.962;1.596;2023-02-28T14:44:59;7.95;;;4.13;;
58770;SDS011;44539;42.962;1.596;2023-02-28T14:47:27;7.85;;;3.88;;
58770;SDS011;44539;42.962;1.596;2023-02-28T14:49:56;6.90;;;3.85;;
58770;SDS011;44539;42.962;1.596;2023-02-28T14:52:23;9.63;;;4.40;;
58770;SDS011;44539;42.962;1.596;2023-02-28T14:54:54;6.35;;;3.58;;
58770;SDS011;44539;42.962;1.596;2023-02-28T15:00:15;6.75;;;3.65;;
58770;SDS011;44539;42.962;1.596;2023-02-28T15:02:46;7.78;;;4.10;;
58770;SDS011;44539;42.962;1.596;2023-02-28T15:07:37;5.72;;;3.60;;
58770;SDS011;44539;42.962;1.596;2023-02-28T15:13:02;7.63;;;3.90;;
58770;SDS011;44539;42.962;1.596;2023-02-28T15:21:06;6.68;;;3.40;;
58770;SDS011;44539;42.962;1.596;2023-02-28T15:23:36;9.85;;;4.03;;
58770;SDS011;44539;42.962;1.596;2023-02-28T15:26:02;7.25;;;3.90;;
58770;SDS011;44539;42.962;1.596;2023-02-28T15:28:29;10.88;;;4.20;;
58770;SDS011;44539;42.962;1.596;2023-02-28T15:30:59;6.88;;;3.75;;
58770;SDS011;44539;42.962;1.596;2023-02-28T15:33:27;8.13;;;3.85;;
58770;SDS011;44539;42.962;1.596;2023-02-28T15:36:03;9.07;;;3.85;;
58770;SDS011;44539;42.962;1.596;2023-02-28T15:38:40;9.07;;;3.90;;
